sensor_id;sensor_type;location;lat;lon;timestamp;temperature;humidity
17483;DHT22;8858;52.308;20.994;2024-01-15T00:00:13;2.50;99.90
17483;DHT22;8858;52.308;20.994;2024-01-15T00:02:43;2.50;99.90
17483;DHT22;8858;52.308;20.994;2024-01-15T00:05:12;2.50;99.90
17483;DHT22;8858;52.308;20.994;2024-01-15T00:07:43;2.50;99.90
17483;DHT22;8858;52.308;20.994;2024-01-15T00:10:12;2.50;99.90
17483;DHT22;8858;52.308;20.994;2024-01-15T00:12:40;2.50;99.90
17483;DHT22;8858;52.308;20.994;2024-01-15T00:15:11;2.50;99.90
17483;DHT22;8858;52.308;20.994;2024-01-15T00:17:40;2.50;99.90
17483;DHT22;8858;52.308;20.994;2024-01-15T00:20:11;2.50;99.90
17483;DHT22;8858;52.308;20.994;2024-01-15T00:22:39;2.50;99.90
17483;DHT22;8858;52.308;20.994;2024-01-15T00:25:11;2.50;99.90
17483;DHT22;8858;52.308;20.994;2024-01-15T00:27:41;2.50;99.90
17483;DHT22;8858;52.308;20.994;2024-01-15T00:30:10;2.50;99.90
17483;DHT22;8858;52.308;20.994;2024-01-15T00:32:39;2.50;99.90
17483;DHT22;8858;52.308;20.994;2024-01-15T00:35:08;2.50;99.90
17483;DHT22;8858;52.308;20.994;2024-01-15T00:37:37;2.50;99.90
17483;DHT22;8858;52.308;20.994;2024-01-15T00:40:06;2.50;99.90
17483;DHT22;8858;52.308;20.994;2024-01-15T00:42:37;2.50;99.90
17483;DHT22;8858;52.308;20.994;2024-01-15T00:45:08;2.50;99.90
17483;DHT22;8858;52.308;20.994;2024-01-15T00:47:37;2.50;99.90
17483;DHT22;8858;52.308;20.994;2024-01-15T00:50:06;2.50;99.90
17483;DHT22;8858;52.308;20.994;2024-01-15T00:52:39;2.50;99.90
17483;DHT22;8858;52.308;20.994;2024-01-15T00:55:07;2.50;99.90
17483;DHT22;8858;52.308;20.994;2024-01-15T00:57:38;2.50;99.90
17483;DHT22;8858;52.308;20.994;2024-01-15T01:00:08;2.50;99.90
17483;DHT22;8858;52.308;20.994;2024-01-15T01:02:36;2.50;99.90
17483;DHT22;8858;52.308;20.994;2024-01-15T01:05:06;2.50;99.90
17483;DHT22;8858;52.308;20.994;2024-01-15T01:07:35;2.50;99.90
17483;DHT22;8858;52.308;20.994;2024-01-15T01:10:04;2.50;99.90
17483;DHT22;8858;52.308;20.994;2024-01-15T01:12:32;2.50;99.90
17483;DHT22;8858;52.308;20.994;2024-01-15T01:15:04;2.60;99.90
17483;DHT22;8858;52.308;20.994;2024-01-15T01:17:33;2.50;99.90
17483;DHT22;8858;52.308;20.994;2024-01-15T01:20:02;2.50;99.90
17483;DHT22;8858;52.308;20.994;2024-01-15T01:22:34;2.50;99.90
17483;DHT22;8858;52.308;20.994;2024-01-15T01:25:04;2.50;99.90
17483;DHT22;8858;52.308;20.994;2024-01-15T01:27:32;2.50;99.90
17483;DHT22;8858;52.308;20.994;2024-01-15T01:30:00;2.50;99.90
17483;DHT22;8858;52.308;20.994;2024-01-15T01:32:30;2.50;99.90
17483;DHT22;8858;52.308;20.994;2024-01-15T01:35:02;2.50;99.90
17483;DHT22;8858;52.308;20.994;2024-01-15T01:37:31;2.40;99.90
17483;DHT22;8858;52.308;20.994;2024-01-15T01:40:02;2.50;99.90
17483;DHT22;8858;52.308;20.994;2024-01-15T01:42:30;2.50;99.90
17483;DHT22;8858;52.308;20.994;2024-01-15T01:44:58;2.40;99.90
17483;DHT22;8858;52.308;20.994;2024-01-15T01:47:27;2.40;99.90
17483;DHT22;8858;52.308;20.994;2024-01-15T01:49:58;2.40;99.90
17483;DHT22;8858;52.308;20.994;2024-01-15T01:52:27;2.50;99.90
17483;DHT22;8858;52.308;20.994;2024-01-15T01:55:00;2.50;99.90
17483;DHT22;8858;52.308;20.994;2024-01-15T01:57:32;2.40;99.90
17483;DHT22;8858;52.308;20.994;2024-01-15T02:00:05;2.40;99.90
17483;DHT22;8858;52.308;20.994;2024-01-15T02:02:38;2.40;99.90
17483;DHT22;8858;52.308;20.994;2024-01-15T02:05:08;2.30;99.90
17483;DHT22;8858;52.308;20.994;2024-01-15T02:07:37;2.40;99.90
17483;DHT22;8858;52.308;20.994;2024-01-15T02:10:07;2.30;99.90
17483;DHT22;8858;52.308;20.994;2024-01-15T02:12:36;2.30;99.90
17483;DHT22;8858;52.308;20.994;2024-01-15T02:15:06;2.30;99.90
17483;DHT22;8858;52.308;20.994;2024-01-15T02:17:35;2.40;99.90
17483;DHT22;8858;52.308;20.994;2024-01-15T02:20:04;2.30;99.90
17483;DHT22;8858;52.308;20.994;2024-01-15T02:22:34;2.30;99.90
17483;DHT22;8858;52.308;20.994;2024-01-15T02:25:05;2.30;99.90
17483;DHT22;8858;52.308;20.994;2024-01-15T02:27:34;2.40;99.90
17483;DHT22;8858;52.308;20.994;2024-01-15T02:30:04;2.30;99.90
17483;DHT22;8858;52.308;20.994;2024-01-15T02:32:33;2.30;99.90
17483;DHT22;8858;52.308;20.994;2024-01-15T02:35:02;2.30;99.90
17483;DHT22;8858;52.308;20.994;2024-01-15T02:37:31;2.30;99.90
17483;DHT22;8858;52.308;20.994;2024-01-15T02:39:59;2.40;99.90
17483;DHT22;8858;52.308;20.994;2024-01-15T02:42:29;2.40;99.90
17483;DHT22;8858;52.308;20.994;2024-01-15T02:44:57;2.40;99.90
17483;DHT22;8858;52.308;20.994;2024-01-15T02:47:26;2.40;99.90
17483;DHT22;8858;52.308;20.994;2024-01-15T02:49:55;2.40;99.90
17483;DHT22;8858;52.308;20.994;2024-01-15T02:52:23;2.40;99.90
17483;DHT22;8858;52.308;20.994;2024-01-15T02:54:51;2.40;99.90
17483;DHT22;8858;52.308;20.994;2024-01-15T02:57:20;2.40;99.90
17483;DHT22;8858;52.308;20.994;2024-01-15T02:59:50;2.40;99.90
17483;DHT22;8858;52.308;20.994;2024-01-15T03:02:18;2.40;99.90
17483;DHT22;8858;52.308;20.994;2024-01-15T03:04:47;2.40;99.90
17483;DHT22;8858;52.308;20.994;2024-01-15T03:07:16;2.40;99.90
17483;DHT22;8858;52.308;20.994;2024-01-15T03:09:44;2.40;99.90
17483;DHT22;8858;52.308;20.994;2024-01-15T03:12:12;2.40;99.90
17483;DHT22;8858;52.308;20.994;2024-01-15T03:14:42;2.40;99.90
17483;DHT22;8858;52.308;20.994;2024-01-15T03:17:12;2.40;99.90
17483;DHT22;8858;52.308;20.994;2024-01-15T03:19:41;2.40;99.90
17483;DHT22;8858;52.308;20.994;2024-01-15T03:22:09;2.40;99.90
17483;DHT22;8858;52.308;20.994;2024-01-15T03:24:38;2.40;99.90
17483;DHT22;8858;52.308;20.994;2024-01-15T03:27:10;2.40;99.90
17483;DHT22;8858;52.308;20.994;2024-01-15T03:29:39;2.40;99.90
17483;DHT22;8858;52.308;20.994;2024-01-15T03:32:08;2.40;99.90
17483;DHT22;8858;52.308;20.994;2024-01-15T03:34:38;2.40;99.90
17483;DHT22;8858;52.308;20.994;2024-01-15T03:37:06;2.50;99.90
17483;DHT22;8858;52.308;20.994;2024-01-15T03:39:38;2.40;99.90
17483;DHT22;8858;52.308;20.994;2024-01-15T03:42:08;2.40;99.90
17483;DHT22;8858;52.308;20.994;2024-01-15T03:44:37;2.40;99.90
17483;DHT22;8858;52.308;20.994;2024-01-15T03:47:05;2.40;99.90
17483;DHT22;8858;52.308;20.994;2024-01-15T03:49:34;2.30;99.90
17483;DHT22;8858;52.308;20.994;2024-01-15T03:52:08;2.40;99.90
17483;DHT22;8858;52.308;20.994;2024-01-15T03:54:36;2.30;99.90
17483;DHT22;8858;52.308;20.994;2024-01-15T03:57:06;2.30;99.90
17483;DHT22;8858;52.308;20.994;2024-01-15T03:59:34;2.40;99.90
17483;DHT22;8858;52.308;20.994;2024-01-15T04:02:02;2.30;99.90
17483;DHT22;8858;52.308;20.994;2024-01-15T04:04:31;2.30;99.90
17483;DHT22;8858;52.308;20.994;2024-01-15T04:06:59;2.30;99.90
17483;DHT22;8858;52.308;20.994;2024-01-15T04:09:30;2.30;99.90
17483;DHT22;8858;52.308;20.994;2024-01-15T04:11:59;2.40;99.90
17483;DHT22;8858;52.308;20.994;2024-01-15T04:14:27;2.30;99.90
17483;DHT22;8858;52.308;20.994;2024-01-15T04:16:56;2.30;99.90
17483;DHT22;8858;52.308;20.994;2024-01-15T04:19:26;2.30;99.90
17483;DHT22;8858;52.308;20.994;2024-01-15T04:21:55;2.30;99.90
17483;DHT22;8858;52.308;20.994;2024-01-15T04:24:24;2.30;99.90
17483;DHT22;8858;52.308;20.994;2024-01-15T04:26:55;2.30;99.90
17483;DHT22;8858;52.308;20.994;2024-01-15T04:29:23;2.30;99.90
17483;DHT22;8858;52.308;20.994;2024-01-15T04:31:52;2.30;99.90
17483;DHT22;8858;52.308;20.994;2024-01-15T04:34:21;2.30;99.90
17483;DHT22;8858;52.308;20.994;2024-01-15T04:36:53;2.30;99.90
17483;DHT22;8858;52.308;20.994;2024-01-15T04:39:22;2.30;99.90
17483;DHT22;8858;52.308;20.994;2024-01-15T04:41:51;2.40;99.90
17483;DHT22;8858;52.308;20.994;2024-01-15T04:44:21;2.30;99.90
17483;DHT22;8858;52.308;20.994;2024-01-15T04:46:50;2.30;99.90
17483;DHT22;8858;52.308;20.994;2024-01-15T04:49:18;2.30;99.90
17483;DHT22;8858;52.308;20.994;2024-01-15T04:51:46;2.30;99.90
17483;DHT22;8858;52.308;20.994;2024-01-15T04:54:15;2.30;99.90
17483;DHT22;8858;52.308;20.994;2024-01-15T04:56:45;2.30;99.90
17483;DHT22;8858;52.308;20.994;2024-01-15T04:59:14;2.30;99.90
17483;DHT22;8858;52.308;20.994;2024-01-15T05:01:48;2.30;99.90
17483;DHT22;8858;52.308;20.994;2024-01-15T05:04:16;2.30;99.90
17483;DHT22;8858;52.308;20.994;2024-01-15T05:06:46;2.30;99.90
17483;DHT22;8858;52.308;20.994;2024-01-15T05:09:15;2.30;99.90
17483;DHT22;8858;52.308;20.994;2024-01-15T05:11:45;2.30;99.90
17483;DHT22;8858;52.308;20.994;2024-01-15T05:14:16;2.30;99.90
17483;DHT22;8858;52.308;20.994;2024-01-15T05:16:48;2.30;99.90
17483;DHT22;8858;52.308;20.994;2024-01-15T05:19:18;2.30;99.90
17483;DHT22;8858;52.308;20.994;2024-01-15T05:21:46;2.30;99.90
17483;DHT22;8858;52.308;20.994;2024-01-15T05:24:15;2.30;99.90
17483;DHT22;8858;52.308;20.994;2024-01-15T05:26:44;2.30;99.90
17483;DHT22;8858;52.308;20.994;2024-01-15T05:29:12;2.40;99.90
17483;DHT22;8858;52.308;20.994;2024-01-15T05:31:41;2.40;99.90
17483;DHT22;8858;52.308;20.994;2024-01-15T05:34:16;2.40;99.90
17483;DHT22;8858;52.308;20.994;2024-01-15T05:36:45;2.40;99.90
17483;DHT22;8858;52.308;20.994;2024-01-15T05:39:15;2.40;99.90
17483;DHT22;8858;52.308;20.994;2024-01-15T05:41:46;2.40;99.90
17483;DHT22;8858;52.308;20.994;2024-01-15T05:44:17;2.40;99.90
17483;DHT22;8858;52.308;20.994;2024-01-15T05:46:47;2.40;99.90
17483;DHT22;8858;52.308;20.994;2024-01-15T05:49:17;2.40;99.90
17483;DHT22;8858;52.308;20.994;2024-01-15T05:51:46;2.40;99.90
17483;DHT22;8858;52.308;20.994;2024-01-15T05:54:14;2.40;99.90
17483;DHT22;8858;52.308;20.994;2024-01-15T05:56:47;2.40;99.90
17483;DHT22;8858;52.308;20.994;2024-01-15T05:59:15;2.40;99.90
17483;DHT22;8858;52.308;20.994;2024-01-15T06:01:44;2.40;99.90
17483;DHT22;8858;52.308;20.994;2024-01-15T06:04:12;2.50;99.90
17483;DHT22;8858;52.308;20.994;2024-01-15T06:06:42;2.50;99.90
17483;DHT22;8858;52.308;20.994;2024-01-15T06:09:13;2.50;99.90
17483;DHT22;8858;52.308;20.994;2024-01-15T06:11:42;2.50;99.90
17483;DHT22;8858;52.308;20.994;2024-01-15T06:14:10;2.40;99.90
17483;DHT22;8858;52.308;20.994;2024-01-15T06:16:39;2.40;99.90
17483;DHT22;8858;52.308;20.994;2024-01-15T06:19:07;2.40;99.90
17483;DHT22;8858;52.308;20.994;2024-01-15T06:21:36;2.40;99.90
17483;DHT22;8858;52.308;20.994;2024-01-15T06:24:09;2.40;99.90
17483;DHT22;8858;52.308;20.994;2024-01-15T06:26:37;2.40;99.90
17483;DHT22;8858;52.308;20.994;2024-01-15T06:29:06;2.40;99.90
17483;DHT22;8858;52.308;20.994;2024-01-15T06:31:35;2.40;99.90
17483;DHT22;8858;52.308;20.994;2024-01-15T06:34:03;2.40;99.90
17483;DHT22;8858;52.308;20.994;2024-01-15T06:36:33;2.40;99.90
17483;DHT22;8858;52.308;20.994;2024-01-15T06:39:01;2.40;99.90
17483;DHT22;8858;52.308;20.994;2024-01-15T06:41:32;2.40;99.90
17483;DHT22;8858;52.308;20.994;2024-01-15T06:44:00;2.40;99.90
17483;DHT22;8858;52.308;20.994;2024-01-15T06:46:29;2.40;99.90
17483;DHT22;8858;52.308;20.994;2024-01-15T06:48:57;2.40;99.90
17483;DHT22;8858;52.308;20.994;2024-01-15T06:51:26;2.40;99.90
17483;DHT22;8858;52.308;20.994;2024-01-15T06:53:57;2.40;99.90
17483;DHT22;8858;52.308;20.994;2024-01-15T06:56:26;2.40;99.90
17483;DHT22;8858;52.308;20.994;2024-01-15T06:58:55;2.40;99.90
17483;DHT22;8858;52.308;20.994;2024-01-15T07:01:24;2.40;99.90
17483;DHT22;8858;52.308;20.994;2024-01-15T07:03:52;2.40;99.90
17483;DHT22;8858;52.308;20.994;2024-01-15T07:06:20;2.50;99.90
17483;DHT22;8858;52.308;20.994;2024-01-15T07:08:49;2.40;99.90
17483;DHT22;8858;52.308;20.994;2024-01-15T07:11:18;2.40;99.90
17483;DHT22;8858;52.308;20.994;2024-01-15T07:13:46;2.40;99.90
17483;DHT22;8858;52.308;20.994;2024-01-15T07:16:15;2.40;99.90
17483;DHT22;8858;52.308;20.994;2024-01-15T07:19:05;2.30;99.90
17483;DHT22;8858;52.308;20.994;2024-01-15T07:21:35;2.30;99.90
17483;DHT22;8858;52.308;20.994;2024-01-15T07:24:04;2.30;99.90
17483;DHT22;8858;52.308;20.994;2024-01-15T07:26:33;2.30;99.90
17483;DHT22;8858;52.308;20.994;2024-01-15T07:29:02;2.30;99.90
17483;DHT22;8858;52.308;20.994;2024-01-15T07:31:34;2.30;99.90
17483;DHT22;8858;52.308;20.994;2024-01-15T07:34:04;2.30;99.90
17483;DHT22;8858;52.308;20.994;2024-01-15T07:36:33;2.30;99.90
17483;DHT22;8858;52.308;20.994;2024-01-15T07:39:01;2.30;99.90
17483;DHT22;8858;52.308;20.994;2024-01-15T07:41:29;2.30;99.90
17483;DHT22;8858;52.308;20.994;2024-01-15T07:43:57;2.30;99.90
17483;DHT22;8858;52.308;20.994;2024-01-15T07:46:26;2.30;99.90
17483;DHT22;8858;52.308;20.994;2024-01-15T07:49:00;2.30;99.90
17483;DHT22;8858;52.308;20.994;2024-01-15T07:51:29;2.30;99.90
17483;DHT22;8858;52.308;20.994;2024-01-15T07:53:57;2.20;99.90
17483;DHT22;8858;52.308;20.994;2024-01-15T07:56:26;2.20;99.90
17483;DHT22;8858;52.308;20.994;2024-01-15T07:58:55;2.20;99.90
17483;DHT22;8858;52.308;20.994;2024-01-15T08:01:27;2.20;99.90
17483;DHT22;8858;52.308;20.994;2024-01-15T08:03:56;2.20;99.90
17483;DHT22;8858;52.308;20.994;2024-01-15T08:06:25;2.20;99.90
17483;DHT22;8858;52.308;20.994;2024-01-15T08:08:57;2.10;99.90
17483;DHT22;8858;52.308;20.994;2024-01-15T08:11:26;2.10;99.90
17483;DHT22;8858;52.308;20.994;2024-01-15T08:13:55;2.10;99.90
17483;DHT22;8858;52.308;20.994;2024-01-15T08:16:24;2.20;99.90
17483;DHT22;8858;52.308;20.994;2024-01-15T08:18:53;2.10;99.90
17483;DHT22;8858;52.308;20.994;2024-01-15T08:21:26;2.10;99.90
17483;DHT22;8858;52.308;20.994;2024-01-15T08:23:57;2.10;99.90
17483;DHT22;8858;52.308;20.994;2024-01-15T08:26:26;2.00;99.90
17483;DHT22;8858;52.308;20.994;2024-01-15T08:28:54;2.00;99.90
17483;DHT22;8858;52.308;20.994;2024-01-15T08:31:23;2.00;99.90
17483;DHT22;8858;52.308;20.994;2024-01-15T08:33:51;2.10;99.90
17483;DHT22;8858;52.308;20.994;2024-01-15T08:36:21;2.10;99.90
17483;DHT22;8858;52.308;20.994;2024-01-15T08:38:51;2.10;99.90
17483;DHT22;8858;52.308;20.994;2024-01-15T08:41:19;2.00;99.90
17483;DHT22;8858;52.308;20.994;2024-01-15T08:43:47;2.00;99.90
17483;DHT22;8858;52.308;20.994;2024-01-15T08:46:17;2.00;99.90
17483;DHT22;8858;52.308;20.994;2024-01-15T08:48:46;2.00;99.90
17483;DHT22;8858;52.308;20.994;2024-01-15T08:51:15;2.00;99.90
17483;DHT22;8858;52.308;20.994;2024-01-15T08:53:45;2.00;99.90
17483;DHT22;8858;52.308;20.994;2024-01-15T08:56:16;2.00;99.90
17483;DHT22;8858;52.308;20.994;2024-01-15T08:58:44;2.00;99.90
17483;DHT22;8858;52.308;20.994;2024-01-15T09:01:13;2.00;99.90
17483;DHT22;8858;52.308;20.994;2024-01-15T09:03:42;1.90;99.90
17483;DHT22;8858;52.308;20.994;2024-01-15T09:06:12;1.80;99.90
17483;DHT22;8858;52.308;20.994;2024-01-15T09:08:40;1.80;99.90
17483;DHT22;8858;52.308;20.994;2024-01-15T09:11:09;1.90;99.90
17483;DHT22;8858;52.308;20.994;2024-01-15T09:13:39;1.90;99.90
17483;DHT22;8858;52.308;20.994;2024-01-15T09:16:08;1.90;99.90
17483;DHT22;8858;52.308;20.994;2024-01-15T09:18:39;1.90;99.90
17483;DHT22;8858;52.308;20.994;2024-01-15T09:21:08;1.90;99.90
17483;DHT22;8858;52.308;20.994;2024-01-15T09:23:36;1.90;99.90
17483;DHT22;8858;52.308;20.994;2024-01-15T09:26:08;2.00;99.90
17483;DHT22;8858;52.308;20.994;2024-01-15T09:28:38;2.00;99.90
17483;DHT22;8858;52.308;20.994;2024-01-15T09:31:07;2.10;99.90
17483;DHT22;8858;52.308;20.994;2024-01-15T09:33:36;2.20;99.90
17483;DHT22;8858;52.308;20.994;2024-01-15T09:36:05;2.20;99.90
17483;DHT22;8858;52.308;20.994;2024-01-15T09:38:34;2.30;99.90
17483;DHT22;8858;52.308;20.994;2024-01-15T09:41:04;2.30;99.90
17483;DHT22;8858;52.308;20.994;2024-01-15T09:43:33;2.30;99.90
17483;DHT22;8858;52.308;20.994;2024-01-15T09:46:03;2.30;99.90
17483;DHT22;8858;52.308;20.994;2024-01-15T09:48:33;2.40;99.90
17483;DHT22;8858;52.308;20.994;2024-01-15T09:51:02;2.40;99.90
17483;DHT22;8858;52.308;20.994;2024-01-15T09:53:31;2.50;99.90
17483;DHT22;8858;52.308;20.994;2024-01-15T09:56:04;2.40;99.90
17483;DHT22;8858;52.308;20.994;2024-01-15T09:58:34;2.40;99.90
17483;DHT22;8858;52.308;20.994;2024-01-15T10:01:05;2.40;99.90
17483;DHT22;8858;52.308;20.994;2024-01-15T10:03:34;2.50;99.90
17483;DHT22;8858;52.308;20.994;2024-01-15T10:06:03;2.40;99.90
17483;DHT22;8858;52.308;20.994;2024-01-15T10:08:32;2.40;99.90
17483;DHT22;8858;52.308;20.994;2024-01-15T10:11:02;2.40;99.90
17483;DHT22;8858;52.308;20.994;2024-01-15T10:13:32;2.40;99.90
17483;DHT22;8858;52.308;20.994;2024-01-15T10:16:01;2.40;99.90
17483;DHT22;8858;52.308;20.994;2024-01-15T10:18:32;2.40;99.90
17483;DHT22;8858;52.308;20.994;2024-01-15T10:21:04;2.30;99.90
17483;DHT22;8858;52.308;20.994;2024-01-15T10:23:32;2.30;99.90
17483;DHT22;8858;52.308;20.994;2024-01-15T10:26:01;2.20;99.90
17483;DHT22;8858;52.308;20.994;2024-01-15T10:28:30;2.30;99.90
17483;DHT22;8858;52.308;20.994;2024-01-15T10:31:02;2.20;99.90
17483;DHT22;8858;52.308;20.994;2024-01-15T10:33:32;2.30;99.90
17483;DHT22;8858;52.308;20.994;2024-01-15T10:36:01;2.30;99.90
17483;DHT22;8858;52.308;20.994;2024-01-15T10:38:29;2.40;99.90
17483;DHT22;8858;52.308;20.994;2024-01-15T10:40:58;2.40;99.90
17483;DHT22;8858;52.308;20.994;2024-01-15T10:43:26;2.40;99.90
17483;DHT22;8858;52.308;20.994;2024-01-15T10:45:56;2.40;99.90
17483;DHT22;8858;52.308;20.994;2024-01-15T10:48:26;2.40;99.90
17483;DHT22;8858;52.308;20.994;2024-01-15T10:50:57;2.40;99.90
17483;DHT22;8858;52.308;20.994;2024-01-15T10:53:26;2.40;99.90
17483;DHT22;8858;52.308;20.994;2024-01-15T10:55:55;2.70;99.90
17483;DHT22;8858;52.308;20.994;2024-01-15T10:58:28;2.60;99.90
17483;DHT22;8858;52.308;20.994;2024-01-15T11:01:00;2.60;99.90
17483;DHT22;8858;52.308;20.994;2024-01-15T11:03:29;2.60;99.90
17483;DHT22;8858;52.308;20.994;2024-01-15T11:05:59;2.50;99.90
17483;DHT22;8858;52.308;20.994;2024-01-15T11:08:28;2.50;99.90
17483;DHT22;8858;52.308;20.994;2024-01-15T11:10:57;2.50;99.90
17483;DHT22;8858;52.308;20.994;2024-01-15T11:13:40;2.60;99.90
17483;DHT22;8858;52.308;20.994;2024-01-15T11:16:10;2.60;99.90
17483;DHT22;8858;52.308;20.994;2024-01-15T11:18:43;2.50;99.90
17483;DHT22;8858;52.308;20.994;2024-01-15T11:21:31;2.50;99.90
17483;DHT22;8858;52.308;20.994;2024-01-15T11:24:00;2.60;99.90
17483;DHT22;8858;52.308;20.994;2024-01-15T11:26:33;2.60;99.90
17483;DHT22;8858;52.308;20.994;2024-01-15T11:29:04;2.60;99.90
17483;DHT22;8858;52.308;20.994;2024-01-15T11:32:04;2.70;99.90
17483;DHT22;8858;52.308;20.994;2024-01-15T11:34:53;2.70;99.90
17483;DHT22;8858;52.308;20.994;2024-01-15T11:37:28;2.80;99.90
17483;DHT22;8858;52.308;20.994;2024-01-15T11:40:02;2.80;99.90
17483;DHT22;8858;52.308;20.994;2024-01-15T11:42:31;2.80;99.90
17483;DHT22;8858;52.308;20.994;2024-01-15T11:45:00;2.80;99.90
17483;DHT22;8858;52.308;20.994;2024-01-15T11:47:58;2.80;99.90
17483;DHT22;8858;52.308;20.994;2024-01-15T11:50:31;2.80;99.90
17483;DHT22;8858;52.308;20.994;2024-01-15T11:53:02;2.80;99.90
17483;DHT22;8858;52.308;20.994;2024-01-15T11:55:39;2.80;99.90
17483;DHT22;8858;52.308;20.994;2024-01-15T11:58:08;2.80;99.90
17483;DHT22;8858;52.308;20.994;2024-01-15T12:00:39;2.80;99.90
17483;DHT22;8858;52.308;20.994;2024-01-15T12:03:09;2.80;99.90
17483;DHT22;8858;52.308;20.994;2024-01-15T12:05:39;2.70;99.90
17483;DHT22;8858;52.308;20.994;2024-01-15T12:08:10;2.70;99.90
17483;DHT22;8858;52.308;20.994;2024-01-15T12:10:40;2.70;99.90
17483;DHT22;8858;52.308;20.994;2024-01-15T12:13:11;2.70;99.90
17483;DHT22;8858;52.308;20.994;2024-01-15T12:15:41;2.70;99.90
17483;DHT22;8858;52.308;20.994;2024-01-15T12:18:13;2.70;99.90
17483;DHT22;8858;52.308;20.994;2024-01-15T12:20:43;2.60;99.90
17483;DHT22;8858;52.308;20.994;2024-01-15T12:23:16;2.60;99.90
17483;DHT22;8858;52.308;20.994;2024-01-15T12:25:45;2.60;99.90
17483;DHT22;8858;52.308;20.994;2024-01-15T12:28:15;2.60;99.90
17483;DHT22;8858;52.308;20.994;2024-01-15T12:30:47;2.60;99.90
17483;DHT22;8858;52.308;20.994;2024-01-15T12:33:18;2.60;99.90
17483;DHT22;8858;52.308;20.994;2024-01-15T12:35:48;2.70;99.90
17483;DHT22;8858;52.308;20.994;2024-01-15T12:38:20;2.60;99.90
17483;DHT22;8858;52.308;20.994;2024-01-15T12:40:51;2.60;99.90
17483;DHT22;8858;52.308;20.994;2024-01-15T12:43:19;2.40;99.90
17483;DHT22;8858;52.308;20.994;2024-01-15T12:45:47;2.40;99.90
17483;DHT22;8858;52.308;20.994;2024-01-15T12:48:16;2.40;99.90
17483;DHT22;8858;52.308;20.994;2024-01-15T12:50:45;2.30;99.90
17483;DHT22;8858;52.308;20.994;2024-01-15T12:53:14;2.40;99.90
17483;DHT22;8858;52.308;20.994;2024-01-15T12:55:48;2.30;99.90
17483;DHT22;8858;52.308;20.994;2024-01-15T12:58:17;2.20;99.90
17483;DHT22;8858;52.308;20.994;2024-01-15T13:00:47;2.20;99.90
17483;DHT22;8858;52.308;20.994;2024-01-15T13:03:15;2.20;99.90
17483;DHT22;8858;52.308;20.994;2024-01-15T13:05:47;2.20;99.90
17483;DHT22;8858;52.308;20.994;2024-01-15T13:08:16;2.30;99.90
17483;DHT22;8858;52.308;20.994;2024-01-15T13:10:44;2.30;99.90
17483;DHT22;8858;52.308;20.994;2024-01-15T13:13:14;2.20;99.90
17483;DHT22;8858;52.308;20.994;2024-01-15T13:15:43;2.30;99.90
17483;DHT22;8858;52.308;20.994;2024-01-15T13:18:13;2.20;99.90
17483;DHT22;8858;52.308;20.994;2024-01-15T13:20:44;2.30;99.90
17483;DHT22;8858;52.308;20.994;2024-01-15T13:23:13;2.20;99.90
17483;DHT22;8858;52.308;20.994;2024-01-15T13:25:41;2.20;99.90
17483;DHT22;8858;52.308;20.994;2024-01-15T13:28:09;2.20;99.90
17483;DHT22;8858;52.308;20.994;2024-01-15T13:30:39;2.20;99.90
17483;DHT22;8858;52.308;20.994;2024-01-15T13:33:10;2.10;99.90
17483;DHT22;8858;52.308;20.994;2024-01-15T13:35:38;2.10;99.90
17483;DHT22;8858;52.308;20.994;2024-01-15T13:38:06;2.10;99.90
17483;DHT22;8858;52.308;20.994;2024-01-15T13:40:36;2.10;99.90
17483;DHT22;8858;52.308;20.994;2024-01-15T13:43:04;2.10;99.90
17483;DHT22;8858;52.308;20.994;2024-01-15T13:45:41;2.20;99.90
17483;DHT22;8858;52.308;20.994;2024-01-15T13:48:09;2.20;99.90
17483;DHT22;8858;52.308;20.994;2024-01-15T13:50:38;2.10;99.90
17483;DHT22;8858;52.308;20.994;2024-01-15T13:53:06;2.20;99.90
17483;DHT22;8858;52.308;20.994;2024-01-15T13:55:38;2.20;99.90
17483;DHT22;8858;52.308;20.994;2024-01-15T13:58:07;2.20;99.90
17483;DHT22;8858;52.308;20.994;2024-01-15T14:00:35;2.20;99.90
17483;DHT22;8858;52.308;20.994;2024-01-15T14:03:06;2.20;99.90
17483;DHT22;8858;52.308;20.994;2024-01-15T14:05:35;2.20;99.90
17483;DHT22;8858;52.308;20.994;2024-01-15T14:08:06;2.30;99.90
17483;DHT22;8858;52.308;20.994;2024-01-15T14:10:36;2.20;99.90
17483;DHT22;8858;52.308;20.994;2024-01-15T14:13:05;2.20;99.90
17483;DHT22;8858;52.308;20.994;2024-01-15T14:15:33;2.20;99.90
17483;DHT22;8858;52.308;20.994;2024-01-15T14:18:02;2.30;99.90
17483;DHT22;8858;52.308;20.994;2024-01-15T14:20:35;2.30;99.90
17483;DHT22;8858;52.308;20.994;2024-01-15T14:23:03;2.30;99.90
17483;DHT22;8858;52.308;20.994;2024-01-15T14:25:31;2.30;99.90
17483;DHT22;8858;52.308;20.994;2024-01-15T14:28:00;2.40;99.90
17483;DHT22;8858;52.308;20.994;2024-01-15T14:30:28;2.30;99.90
17483;DHT22;8858;52.308;20.994;2024-01-15T14:32:57;2.30;99.90
17483;DHT22;8858;52.308;20.994;2024-01-15T14:35:25;2.30;99.90
17483;DHT22;8858;52.308;20.994;2024-01-15T14:37:54;2.30;99.90
17483;DHT22;8858;52.308;20.994;2024-01-15T14:40:25;2.40;99.90
17483;DHT22;8858;52.308;20.994;2024-01-15T14:42:53;2.30;99.90
17483;DHT22;8858;52.308;20.994;2024-01-15T14:45:22;2.30;99.90
17483;DHT22;8858;52.308;20.994;2024-01-15T14:47:50;2.40;99.90
17483;DHT22;8858;52.308;20.994;2024-01-15T14:50:18;2.40;99.90
17483;DHT22;8858;52.308;20.994;2024-01-15T14:52:49;2.30;99.90
17483;DHT22;8858;52.308;20.994;2024-01-15T14:55:21;2.40;99.90
17483;DHT22;8858;52.308;20.994;2024-01-15T14:57:50;2.40;99.90
17483;DHT22;8858;52.308;20.994;2024-01-15T15:00:20;2.40;99.90
17483;DHT22;8858;52.308;20.994;2024-01-15T15:02:49;2.30;99.90
17483;DHT22;8858;52.308;20.994;2024-01-15T15:05:19;2.30;99.90
17483;DHT22;8858;52.308;20.994;2024-01-15T15:07:47;2.20;99.90
17483;DHT22;8858;52.308;20.994;2024-01-15T15:10:16;2.30;99.90
17483;DHT22;8858;52.308;20.994;2024-01-15T15:12:46;2.20;99.90
17483;DHT22;8858;52.308;20.994;2024-01-15T15:15:14;2.20;99.90
17483;DHT22;8858;52.308;20.994;2024-01-15T15:17:49;2.20;99.90
17483;DHT22;8858;52.308;20.994;2024-01-15T15:20:17;2.20;99.90
17483;DHT22;8858;52.308;20.994;2024-01-15T15:22:47;2.20;99.90
17483;DHT22;8858;52.308;20.994;2024-01-15T15:25:16;2.20;99.90
17483;DHT22;8858;52.308;20.994;2024-01-15T15:27:46;2.20;99.90
17483;DHT22;8858;52.308;20.994;2024-01-15T15:30:15;2.10;99.90
17483;DHT22;8858;52.308;20.994;2024-01-15T15:32:43;2.20;99.90
17483;DHT22;8858;52.308;20.994;2024-01-15T15:35:11;2.20;99.90
17483;DHT22;8858;52.308;20.994;2024-01-15T15:37:40;2.10;99.90
17483;DHT22;8858;52.308;20.994;2024-01-15T15:40:09;2.10;99.90
17483;DHT22;8858;52.308;20.994;2024-01-15T15:42:38;2.10;99.90
17483;DHT22;8858;52.308;20.994;2024-01-15T15:45:12;2.10;99.90
17483;DHT22;8858;52.308;20.994;2024-01-15T15:47:41;2.10;99.90
17483;DHT22;8858;52.308;20.994;2024-01-15T15:50:09;2.10;99.90
17483;DHT22;8858;52.308;20.994;2024-01-15T15:52:38;2.10;99.90
17483;DHT22;8858;52.308;20.994;2024-01-15T15:55:07;2.10;99.90
17483;DHT22;8858;52.308;20.994;2024-01-15T15:57:37;2.20;99.90
17483;DHT22;8858;52.308;20.994;2024-01-15T16:00:07;2.20;99.90